Time;durP1;ratioP1;P1;durP2;ratioP2;P2;SDS_P1;SDS_P2;PMS_P1;PMS_P2;Temp;Humidity;BMP_temperature;BMP_pressure;BME280_temperature;BME280_humidity;BME280_pressure;Samples;Min_cycle;Max_cycle;Signal;HPM_P1;HPM_P2
2022/10/30 00:01:59;;;;;;;8.65;3.35;;;;;;;;;;4993268;28;20473;-46
2022/10/30 00:04:24;;;;;;;10.85;3.05;;;;;;;;;;4990698;28;20030;-46
2022/10/30 00:06:49;;;;;;;9.30;3.45;;;;;;;;;;4995689;28;20018;-46
2022/10/30 00:09:15;;;;;;;5.45;2.97;;;;;;;;;;4999585;28;20035;-46
2022/10/30 00:11:40;;;;;;;6.25;2.97;;;;;;;;;;4998968;28;20522;-50
2022/10/30 00:14:06;;;;;;;8.30;3.25;;;;;;;;;;4995981;28;20046;-48
2022/10/30 00:16:32;;;;;;;6.30;3.10;;;;;;;;;;4997869;28;20026;-52
2022/10/30 00:18:57;;;;;;;5.75;2.72;;;;;;;;;;4996459;28;20037;-49
2022/10/30 00:21:22;;;;;;;6.75;2.72;;;;;;;;;;5000056;28;20111;-53
2022/10/30 00:23:49;;;;;;;4.22;3.17;;;;;;;;;;4994523;28;20097;-51
2022/10/30 00:26:16;;;;;;;7.43;3.35;;;;;;;;;;4993691;28;20478;-47
2022/10/30 00:28:41;;;;;;;8.27;3.35;;;;;;;;;;4996257;28;20383;-46
2022/10/30 00:31:07;;;;;;;5.88;2.92;;;;;;;;;;4997563;28;20040;-48
2022/10/30 00:33:32;;;;;;;9.50;2.60;;;;;;;;;;4995112;28;20052;-47
2022/10/30 00:35:58;;;;;;;7.15;3.03;;;;;;;;;;4993882;28;20042;-48
2022/10/30 00:38:23;;;;;;;5.75;2.88;;;;;;;;;;4999961;28;21584;-52
2022/10/30 00:40:48;;;;;;;6.68;2.63;;;;;;;;;;4999103;28;20034;-51
2022/10/30 00:43:35;;;;;;;11.75;3.17;;;;;;;;;;4998231;28;20096;-47
2022/10/30 00:46:26;;;;;;;10.40;3.10;;;;;;;;;;4994936;28;22018;-51
2022/10/30 00:49:02;;;;;;;14.52;3.33;;;;;;;;;;4996988;28;20112;-49
2022/10/30 00:51:31;;;;;;;7.35;2.88;;;;;;;;;;4995002;28;20030;-50
2022/10/30 00:53:59;;;;;;;5.00;2.97;;;;;;;;;;4996085;28;20038;-52
2022/10/30 00:56:25;;;;;;;6.65;2.65;;;;;;;;;;4997049;28;20026;-50
2022/10/30 00:59:04;;;;;;;13.05;3.05;;;;;;;;;;4996624;28;20057;-51
2022/10/30 01:01:35;;;;;;;5.80;3.00;;;;;;;;;;4991260;28;20026;-52
2022/10/30 01:04:01;;;;;;;10.38;3.15;;;;;;;;;;4995112;28;20033;-52
2022/10/30 01:06:28;;;;;;;5.07;2.88;;;;;;;;;;4993762;28;20027;-51
2022/10/30 01:08:54;;;;;;;6.15;2.83;;;;;;;;;;4990729;28;20117;-52
2022/10/30 01:11:20;;;;;;;8.50;2.63;;;;;;;;;;4994426;28;20113;-50
2022/10/30 01:13:48;;;;;;;9.00;3.40;;;;;;;;;;4996583;28;20454;-49
2022/10/30 01:16:16;;;;;;;8.10;2.47;;;;;;;;;;4991617;28;20122;-48
2022/10/30 01:18:53;;;;;;;6.20;2.30;;;;;;;;;;4993301;28;20034;-50
2022/10/30 01:21:32;;;;;;;9.07;2.90;;;;;;;;;;4987906;28;20557;-52
2022/10/30 01:24:11;;;;;;;4.47;2.33;;;;;;;;;;4991709;28;20069;-49
2022/10/30 01:27:00;;;;;;;7.57;2.60;;;;;;;;;;4987882;28;20130;-51
2022/10/30 01:29:40;;;;;;;3.80;2.30;;;;;;;;;;4992014;28;20037;-51
2022/10/30 01:32:16;;;;;;;4.78;2.25;;;;;;;;;;4992980;28;20653;-46
2022/10/30 01:34:58;;;;;;;4.13;2.15;;;;;;;;;;4995828;28;20048;-50
2022/10/30 01:37:30;;;;;;;6.50;2.72;;;;;;;;;;4996723;28;20039;-50
2022/10/30 01:39:56;;;;;;;3.70;2.15;;;;;;;;;;4998249;28;20115;-46
2022/10/30 01:42:40;;;;;;;5.88;2.15;;;;;;;;;;4990016;28;20029;-49
2022/10/30 01:45:05;;;;;;;3.42;2.50;;;;;;;;;;4992856;28;20042;-51
2022/10/30 01:47:54;;;;;;;8.63;2.70;;;;;;;;;;4996209;28;20486;-47
2022/10/30 01:50:44;;;;;;;8.20;2.53;;;;;;;;;;4998527;28;20034;-47
2022/10/30 01:53:26;;;;;;;5.22;2.78;;;;;;;;;;4989891;28;20038;-51
2022/10/30 01:56:09;;;;;;;7.93;2.28;;;;;;;;;;4996750;28;20038;-52
2022/10/30 01:58:53;;;;;;;3.08;2.35;;;;;;;;;;4991744;28;20549;-51
2022/10/30 02:01:20;;;;;;;10.75;2.15;;;;;;;;;;4990899;28;20042;-48
2022/10/30 02:03:45;;;;;;;3.67;2.47;;;;;;;;;;4987781;28;20043;-49
2022/10/30 02:06:11;;;;;;;6.10;2.35;;;;;;;;;;4993284;28;20116;-51
2022/10/30 02:08:36;;;;;;;6.57;2.65;;;;;;;;;;4989109;28;20042;-51
2022/10/30 02:11:02;;;;;;;5.78;2.33;;;;;;;;;;4991538;28;20053;-47
2022/10/30 02:13:28;;;;;;;3.13;2.22;;;;;;;;;;4986739;28;20034;-47
2022/10/30 02:15:54;;;;;;;5.47;2.35;;;;;;;;;;4993928;28;20041;-46
2022/10/30 02:18:19;;;;;;;4.82;2.22;;;;;;;;;;4986204;28;20495;-51
2022/10/30 02:20:45;;;;;;;6.65;2.25;;;;;;;;;;4990842;28;20100;-52
2022/10/30 02:23:17;;;;;;;4.85;2.05;;;;;;;;;;4993582;28;20104;-51
2022/10/30 02:25:43;;;;;;;5.88;2.20;;;;;;;;;;4995173;28;20113;-50
2022/10/30 02:28:08;;;;;;;5.75;2.50;;;;;;;;;;4991755;28;20487;-50
2022/10/30 02:30:34;;;;;;;5.20;2.20;;;;;;;;;;4996531;28;20625;-49
2022/10/30 02:32:59;;;;;;;4.68;2.40;;;;;;;;;;4998262;28;20482;-46
2022/10/30 02:35:24;;;;;;;4.90;2.30;;;;;;;;;;4992747;28;20074;-50
2022/10/30 02:37:50;;;;;;;2.83;2.10;;;;;;;;;;4993338;28;20046;-46
2022/10/30 02:40:15;;;;;;;7.55;2.17;;;;;;;;;;4996639;28;20115;-51
2022/10/30 02:42:40;;;;;;;6.28;2.25;;;;;;;;;;4997639;28;20038;-46
2022/10/30 02:45:06;;;;;;;5.60;2.05;;;;;;;;;;5001408;28;20030;-48
2022/10/30 02:47:32;;;;;;;3.72;2.38;;;;;;;;;;4996699;28;20037;-46
2022/10/30 02:49:58;;;;;;;8.85;2.33;;;;;;;;;;4996005;28;20026;-52
2022/10/30 02:52:23;;;;;;;4.70;2.25;;;;;;;;;;4996151;28;20047;-46
2022/10/30 02:54:48;;;;;;;4.25;1.90;;;;;;;;;;5000335;28;20037;-47
2022/10/30 02:57:14;;;;;;;3.60;2.40;;;;;;;;;;4993047;28;20575;-48
2022/10/30 02:59:39;;;;;;;4.22;2.20;;;;;;;;;;4992531;28;20065;-49
2022/10/30 03:02:04;;;;;;;3.88;2.13;;;;;;;;;;4992223;28;20069;-49
2022/10/30 03:04:30;;;;;;;7.45;2.20;;;;;;;;;;4993742;28;20387;-50
2022/10/30 03:06:55;;;;;;;3.45;2.13;;;;;;;;;;4996385;28;20026;-46
2022/10/30 03:09:21;;;;;;;3.15;2.65;;;;;;;;;;4996123;28;20044;-51
2022/10/30 03:11:46;;;;;;;3.72;2.47;;;;;;;;;;4998525;28;20454;-49
2022/10/30 03:14:11;;;;;;;4.75;2.67;;;;;;;;;;4994649;28;20514;-46
2022/10/30 03:16:37;;;;;;;3.08;2.22;;;;;;;;;;5001280;28;20080;-47
2022/10/30 03:19:03;;;;;;;10.75;2.40;;;;;;;;;;4997043;28;20502;-46
2022/10/30 03:21:29;;;;;;;2.60;2.30;;;;;;;;;;4990061;28;20037;-49
2022/10/30 03:23:55;;;;;;;2.58;2.28;;;;;;;;;;4992126;28;20035;-48
2022/10/30 03:26:20;;;;;;;8.43;3.13;;;;;;;;;;4999728;28;20037;-46
2022/10/30 03:28:46;;;;;;;7.60;2.92;;;;;;;;;;4992159;28;20046;-46
2022/10/30 03:31:14;;;;;;;2.53;2.30;;;;;;;;;;4989212;28;20391;-49
2022/10/30 03:33:39;;;;;;;4.75;2.47;;;;;;;;;;4992033;28;20034;-46
2022/10/30 03:36:07;;;;;;;4.28;2.38;;;;;;;;;;4997083;28;20510;-46
2022/10/30 03:38:32;;;;;;;4.68;2.40;;;;;;;;;;4996400;28;20070;-51
2022/10/30 03:40:58;;;;;;;7.40;3.10;;;;;;;;;;4997114;28;20112;-52
2022/10/30 03:43:24;;;;;;;6.05;2.60;;;;;;;;;;4998352;28;20176;-46
2022/10/30 03:45:51;;;;;;;8.15;2.45;;;;;;;;;;4992901;28;20026;-46
2022/10/30 03:48:18;;;;;;;5.38;2.45;;;;;;;;;;4996465;28;20064;-51
2022/10/30 03:50:44;;;;;;;6.68;2.30;;;;;;;;;;4993591;28;20031;-47
2022/10/30 03:53:10;;;;;;;4.25;2.10;;;;;;;;;;4992685;28;20126;-48
2022/10/30 03:55:35;;;;;;;5.45;2.40;;;;;;;;;;4996832;28;20025;-48
2022/10/30 03:58:00;;;;;;;3.00;1.95;;;;;;;;;;4990883;28;20048;-46
2022/10/30 04:00:26;;;;;;;2.13;1.92;;;;;;;;;;4996069;28;20451;-47
2022/10/30 04:02:51;;;;;;;5.07;2.25;;;;;;;;;;4994121;28;20049;-49
2022/10/30 04:05:19;;;;;;;4.50;2.03;;;;;;;;;;4996268;28;20041;-49
2022/10/30 04:07:45;;;;;;;5.10;2.20;;;;;;;;;;4989673;28;20100;-49
2022/10/30 04:10:11;;;;;;;7.40;1.85;;;;;;;;;;4995382;28;20048;-46
2022/10/30 04:12:37;;;;;;;4.05;2.20;;;;;;;;;;4989393;28;20035;-47
2022/10/30 04:15:04;;;;;;;5.35;1.90;;;;;;;;;;4991933;28;20449;-46
2022/10/30 04:17:30;;;;;;;6.55;1.90;;;;;;;;;;4991025;28;20096;-46
2022/10/30 04:19:55;;;;;;;5.43;2.72;;;;;;;;;;4994236;28;20034;-47
2022/10/30 04:22:20;;;;;;;5.03;2.00;;;;;;;;;;4995151;28;20046;-50
2022/10/30 04:24:47;;;;;;;5.20;2.40;;;;;;;;;;4998383;28;20069;-48
2022/10/30 04:27:13;;;;;;;4.80;1.75;;;;;;;;;;4987502;28;20049;-48
2022/10/30 04:29:40;;;;;;;5.20;2.20;;;;;;;;;;4992875;28;20080;-47
2022/10/30 04:32:06;;;;;;;3.92;2.20;;;;;;;;;;4996213;28;20051;-50
2022/10/30 04:34:32;;;;;;;3.92;1.90;;;;;;;;;;4991356;28;20117;-47
2022/10/30 04:36:57;;;;;;;5.97;1.77;;;;;;;;;;4993034;28;20052;-48
2022/10/30 04:39:22;;;;;;;4.03;2.15;;;;;;;;;;4994115;28;20033;-48
2022/10/30 04:41:48;;;;;;;3.78;1.75;;;;;;;;;;4996766;28;20563;-46
2022/10/30 04:44:13;;;;;;;9.10;2.50;;;;;;;;;;4996639;28;20026;-50
2022/10/30 04:46:38;;;;;;;7.93;2.05;;;;;;;;;;4995193;28;20116;-48
2022/10/30 04:49:04;;;;;;;8.45;2.00;;;;;;;;;;4991171;28;20033;-47
2022/10/30 04:51:29;;;;;;;5.38;2.33;;;;;;;;;;4989186;28;20163;-49
2022/10/30 04:53:55;;;;;;;4.63;2.40;;;;;;;;;;4994188;28;20136;-48
2022/10/30 04:56:20;;;;;;;2.97;2.00;;;;;;;;;;4992201;28;20041;-49
2022/10/30 04:58:45;;;;;;;3.42;1.85;;;;;;;;;;4994457;28;20057;-47
2022/10/30 05:01:11;;;;;;;4.28;2.08;;;;;;;;;;4992415;28;20044;-46
2022/10/30 05:03:36;;;;;;;4.25;2.10;;;;;;;;;;4995662;28;20062;-48
2022/10/30 05:06:12;;;;;;;4.88;2.13;;;;;;;;;;4990561;28;20524;-48
2022/10/30 05:08:37;;;;;;;3.97;2.15;;;;;;;;;;4993003;28;20092;-48
2022/10/30 05:11:04;;;;;;;2.92;1.85;;;;;;;;;;4995610;28;20033;-48
2022/10/30 05:13:29;;;;;;;3.83;2.10;;;;;;;;;;4995858;28;20073;-49
2022/10/30 05:15:55;;;;;;;2.42;2.00;;;;;;;;;;4993587;28;20026;-48
2022/10/30 05:18:20;;;;;;;4.00;2.05;;;;;;;;;;4993275;28;20100;-46
2022/10/30 05:20:46;;;;;;;6.53;1.98;;;;;;;;;;4990707;28;20045;-51
2022/10/30 05:23:11;;;;;;;2.70;2.08;;;;;;;;;;4996536;28;20038;-48
2022/10/30 05:25:37;;;;;;;5.05;2.33;;;;;;;;;;4992340;28;20030;-47
2022/10/30 05:28:04;;;;;;;6.38;2.10;;;;;;;;;;4995410;28;20046;-49
2022/10/30 05:30:31;;;;;;;4.22;2.33;;;;;;;;;;4988978;28;20034;-47
2022/10/30 05:33:02;;;;;;;4.57;2.00;;;;;;;;;;4995485;28;20043;-48
2022/10/30 05:35:31;;;;;;;5.78;1.85;;;;;;;;;;4993276;28;20096;-49
2022/10/30 05:37:57;;;;;;;8.20;2.28;;;;;;;;;;4988578;28;20034;-47
2022/10/30 05:40:22;;;;;;;5.18;2.10;;;;;;;;;;4988165;28;20033;-47
2022/10/30 05:42:48;;;;;;;5.93;1.92;;;;;;;;;;4994373;28;20038;-48
2022/10/30 05:45:15;;;;;;;4.28;2.33;;;;;;;;;;4992498;28;20363;-50
2022/10/30 05:47:40;;;;;;;3.28;2.17;;;;;;;;;;4991509;28;20030;-47
2022/10/30 05:50:07;;;;;;;5.30;2.38;;;;;;;;;;4990520;28;20048;-50
2022/10/30 05:52:32;;;;;;;3.50;1.90;;;;;;;;;;4991953;28;20396;-49
2022/10/30 05:54:58;;;;;;;3.65;1.58;;;;;;;;;;4991689;28;20031;-47
2022/10/30 05:57:23;;;;;;;5.82;2.50;;;;;;;;;;4994166;28;20043;-48
2022/10/30 05:59:49;;;;;;;4.45;1.90;;;;;;;;;;4994988;28;20037;-50
2022/10/30 06:02:15;;;;;;;4.35;1.67;;;;;;;;;;4987935;28;20049;-46
2022/10/30 06:04:41;;;;;;;3.67;1.75;;;;;;;;;;4997069;28;20033;-46
2022/10/30 06:07:06;;;;;;;2.17;1.75;;;;;;;;;;5000472;28;20035;-48
2022/10/30 06:09:32;;;;;;;5.03;2.00;;;;;;;;;;4997124;28;20129;-47
2022/10/30 06:11:57;;;;;;;8.48;1.67;;;;;;;;;;4997397;28;20041;-47
2022/10/30 06:14:22;;;;;;;1.92;1.73;;;;;;;;;;5002677;28;20028;-46
2022/10/30 06:16:48;;;;;;;5.45;1.80;;;;;;;;;;5002098;28;20031;-50
2022/10/30 06:19:13;;;;;;;5.45;1.77;;;;;;;;;;5003796;28;20106;-47
2022/10/30 06:21:39;;;;;;;3.22;1.58;;;;;;;;;;4991919;28;20734;-49
2022/10/30 06:24:05;;;;;;;3.85;1.65;;;;;;;;;;4996542;28;20991;-46
2022/10/30 06:26:30;;;;;;;2.10;1.60;;;;;;;;;;4994947;28;20149;-48
2022/10/30 06:28:55;;;;;;;3.08;1.63;;;;;;;;;;4999132;28;20132;-48
2022/10/30 06:31:21;;;;;;;3.05;1.52;;;;;;;;;;4997191;28;20030;-46
2022/10/30 06:33:46;;;;;;;5.63;1.90;;;;;;;;;;4999696;28;20034;-49
2022/10/30 06:36:11;;;;;;;3.47;1.90;;;;;;;;;;5004351;28;20084;-48
2022/10/30 06:38:37;;;;;;;1.75;1.63;;;;;;;;;;4992460;28;20038;-46
2022/10/30 06:41:02;;;;;;;3.83;1.98;;;;;;;;;;4997689;28;20097;-46
2022/10/30 06:43:27;;;;;;;2.03;1.88;;;;;;;;;;4997642;28;20034;-46
2022/10/30 06:45:53;;;;;;;7.70;1.90;;;;;;;;;;5000611;28;20132;-49
2022/10/30 06:48:18;;;;;;;6.13;1.85;;;;;;;;;;4996853;28;20434;-48
2022/10/30 06:50:43;;;;;;;5.05;1.85;;;;;;;;;;4990571;28;20069;-49
2022/10/30 06:53:10;;;;;;;11.35;1.70;;;;;;;;;;4995435;28;20054;-46
2022/10/30 06:55:35;;;;;;;3.97;2.13;;;;;;;;;;4999598;28;20101;-48
2022/10/30 06:58:01;;;;;;;6.07;2.15;;;;;;;;;;4997196;28;20100;-52
2022/10/30 07:00:26;;;;;;;4.70;2.92;;;;;;;;;;5001009;28;20036;-52
2022/10/30 07:02:58;;;;;;;3.15;2.00;;;;;;;;;;4995382;28;20034;-52
2022/10/30 07:05:24;;;;;;;4.65;1.80;;;;;;;;;;4999717;28;20022;-47
2022/10/30 07:07:49;;;;;;;7.97;2.10;;;;;;;;;;4998255;28;20487;-46
2022/10/30 07:10:15;;;;;;;4.45;1.70;;;;;;;;;;5000081;28;20034;-47
2022/10/30 07:12:40;;;;;;;6.85;1.90;;;;;;;;;;4992591;28;20872;-45
2022/10/30 07:15:06;;;;;;;5.43;1.73;;;;;;;;;;5001957;28;20035;-46
2022/10/30 07:17:31;;;;;;;2.63;2.15;;;;;;;;;;4997034;28;20045;-45
2022/10/30 07:19:56;;;;;;;3.05;1.80;;;;;;;;;;5000243;28;20030;-46
2022/10/30 07:22:22;;;;;;;7.40;2.40;;;;;;;;;;4994315;28;20053;-52
2022/10/30 07:24:47;;;;;;;5.80;2.63;;;;;;;;;;4998004;28;20034;-47
2022/10/30 07:27:12;;;;;;;5.80;2.83;;;;;;;;;;4991433;28;20926;-47
2022/10/30 07:29:38;;;;;;;11.98;3.20;;;;;;;;;;4995847;28;20414;-48
2022/10/30 07:32:03;;;;;;;4.57;2.97;;;;;;;;;;4996143;28;20052;-47
2022/10/30 07:34:29;;;;;;;9.43;2.50;;;;;;;;;;4995893;28;20033;-47
2022/10/30 07:36:55;;;;;;;10.70;2.45;;;;;;;;;;4994525;28;20114;-46
2022/10/30 07:39:20;;;;;;;4.68;2.50;;;;;;;;;;4989034;28;20105;-50
2022/10/30 07:41:48;;;;;;;6.18;2.75;;;;;;;;;;4993256;28;20111;-49
2022/10/30 07:44:13;;;;;;;7.10;2.72;;;;;;;;;;4991286;28;20483;-51
2022/10/30 07:46:38;;;;;;;11.27;2.63;;;;;;;;;;4995756;28;20070;-51
2022/10/30 07:49:04;;;;;;;9.25;3.95;;;;;;;;;;4989341;28;20046;-48
2022/10/30 07:51:29;;;;;;;6.07;3.17;;;;;;;;;;4991866;28;20026;-50
2022/10/30 07:53:55;;;;;;;5.32;3.15;;;;;;;;;;4997359;28;20041;-50
2022/10/30 07:56:20;;;;;;;9.25;2.90;;;;;;;;;;4995250;28;20023;-46
2022/10/30 07:58:45;;;;;;;6.47;3.00;;;;;;;;;;4991824;28;20042;-49
2022/10/30 08:01:11;;;;;;;5.40;2.47;;;;;;;;;;4990233;28;20038;-51
2022/10/30 08:03:36;;;;;;;5.85;2.58;;;;;;;;;;4991113;28;20447;-49
2022/10/30 08:06:01;;;;;;;5.72;2.50;;;;;;;;;;4995217;28;20021;-49
2022/10/30 08:08:27;;;;;;;4.55;2.30;;;;;;;;;;4993811;28;20046;-50
2022/10/30 08:10:52;;;;;;;9.20;2.63;;;;;;;;;;4998604;28;20026;-52
2022/10/30 08:13:17;;;;;;;4.43;2.90;;;;;;;;;;4994131;28;20380;-52
2022/10/30 08:15:43;;;;;;;6.03;2.78;;;;;;;;;;4989079;28;20029;-47
2022/10/30 08:18:08;;;;;;;3.85;3.10;;;;;;;;;;4994869;28;20038;-48
2022/10/30 08:20:33;;;;;;;5.25;2.75;;;;;;;;;;4994145;28;20034;-47
2022/10/30 08:22:59;;;;;;;6.03;2.80;;;;;;;;;;4995464;28;20034;-49
2022/10/30 08:25:27;;;;;;;8.65;2.95;;;;;;;;;;4990802;28;20410;-52
2022/10/30 08:27:58;;;;;;;8.00;2.22;;;;;;;;;;4993103;28;20150;-51
2022/10/30 08:30:26;;;;;;;4.90;2.63;;;;;;;;;;4994021;28;20040;-49
2022/10/30 08:32:51;;;;;;;10.50;3.70;;;;;;;;;;4990632;28;20061;-48
2022/10/30 08:35:17;;;;;;;6.20;2.65;;;;;;;;;;4995140;28;20608;-46
2022/10/30 08:37:42;;;;;;;8.25;2.17;;;;;;;;;;4993042;28;20047;-53
2022/10/30 08:40:11;;;;;;;9.45;2.40;;;;;;;;;;4995737;28;20084;-48
2022/10/30 08:42:37;;;;;;;6.32;2.30;;;;;;;;;;4992530;28;20042;-50
2022/10/30 08:45:03;;;;;;;8.10;2.67;;;;;;;;;;4991367;28;20062;-52
2022/10/30 08:47:28;;;;;;;5.80;2.70;;;;;;;;;;4989526;28;20062;-51
2022/10/30 08:49:54;;;;;;;9.18;2.08;;;;;;;;;;4996077;28;20041;-49
2022/10/30 08:52:19;;;;;;;3.85;2.20;;;;;;;;;;4995310;28;20042;-48
2022/10/30 08:54:44;;;;;;;5.20;2.30;;;;;;;;;;4995878;28;20489;-49
2022/10/30 08:57:10;;;;;;;3.30;2.53;;;;;;;;;;4986168;28;20101;-48
2022/10/30 08:59:35;;;;;;;3.15;1.88;;;;;;;;;;4994968;28;20030;-53
2022/10/30 09:02:00;;;;;;;8.00;2.20;;;;;;;;;;4991795;28;20042;-51
2022/10/30 09:04:26;;;;;;;5.45;2.35;;;;;;;;;;4995001;28;20035;-49
2022/10/30 09:06:51;;;;;;;11.40;2.65;;;;;;;;;;4993924;28;20022;-47
2022/10/30 09:09:16;;;;;;;6.57;2.08;;;;;;;;;;4988915;28;20430;-50
2022/10/30 09:11:42;;;;;;;9.07;2.30;;;;;;;;;;4993454;28;20050;-50
2022/10/30 09:14:07;;;;;;;4.65;2.53;;;;;;;;;;4997739;28;20030;-50
2022/10/30 09:16:32;;;;;;;6.15;2.45;;;;;;;;;;4994888;28;20022;-46
2022/10/30 09:18:58;;;;;;;7.60;2.15;;;;;;;;;;4994135;28;20045;-50
2022/10/30 09:21:23;;;;;;;6.85;2.50;;;;;;;;;;4994907;28;20054;-53
2022/10/30 09:23:48;;;;;;;2.88;1.83;;;;;;;;;;4994086;28;20411;-46
2022/10/30 09:26:14;;;;;;;5.85;1.98;;;;;;;;;;4996911;28;20105;-51
2022/10/30 09:28:39;;;;;;;4.22;2.28;;;;;;;;;;4992071;28;20407;-51
2022/10/30 09:31:05;;;;;;;6.55;2.25;;;;;;;;;;4995423;28;20121;-49
2022/10/30 09:33:30;;;;;;;4.88;2.22;;;;;;;;;;4995140;28;20057;-47
2022/10/30 09:35:56;;;;;;;7.82;2.13;;;;;;;;;;4990576;28;20033;-49
2022/10/30 09:38:21;;;;;;;4.13;2.15;;;;;;;;;;4995082;28;20691;-47
2022/10/30 09:41:16;;;;;;;6.35;2.35;;;;;;;;;;4992056;28;20031;-46
2022/10/30 09:44:22;;;;;;;6.18;2.58;;;;;;;;;;4992598;28;20119;-50
2022/10/30 09:47:10;;;;;;;7.53;2.85;;;;;;;;;;4992643;28;20033;-50
2022/10/30 09:49:54;;;;;;;14.43;2.83;;;;;;;;;;4994328;28;20510;-51
2022/10/30 09:52:42;;;;;;;13.02;2.50;;;;;;;;;;4988405;28;20190;-49
2022/10/30 09:55:14;;;;;;;13.15;2.53;;;;;;;;;;4996110;28;20100;-47
2022/10/30 09:58:13;;;;;;;12.80;2.58;;;;;;;;;;4988949;28;22586;-52
2022/10/30 10:00:50;;;;;;;9.20;3.35;;;;;;;;;;4996426;28;20044;-48
2022/10/30 10:03:30;;;;;;;15.90;3.30;;;;;;;;;;4991551;28;20073;-49
2022/10/30 10:05:59;;;;;;;15.88;3.25;;;;;;;;;;4991869;28;20031;-50
2022/10/30 10:08:40;;;;;;;10.48;3.15;;;;;;;;;;4989546;28;20046;-48
2022/10/30 10:11:29;;;;;;;8.98;2.95;;;;;;;;;;4993502;28;20033;-47
2022/10/30 10:14:08;;;;;;;16.30;3.58;;;;;;;;;;4996345;28;20760;-49
2022/10/30 10:16:37;;;;;;;13.60;3.35;;;;;;;;;;4986304;28;20086;-49
2022/10/30 10:19:30;;;;;;;14.10;3.72;;;;;;;;;;4994377;28;20038;-50
2022/10/30 10:21:58;;;;;;;10.20;3.30;;;;;;;;;;4991296;28;20444;-48
2022/10/30 10:24:29;;;;;;;10.88;3.75;;;;;;;;;;4995310;28;20486;-48
2022/10/30 10:27:09;;;;;;;10.18;2.80;;;;;;;;;;4993904;28;20073;-51
2022/10/30 10:29:40;;;;;;;13.10;3.38;;;;;;;;;;4993495;28;20066;-47
2022/10/30 10:32:32;;;;;;;11.35;3.53;;;;;;;;;;4992069;28;20065;-49
2022/10/30 10:35:22;;;;;;;15.20;3.38;;;;;;;;;;4996271;28;20031;-49
2022/10/30 10:38:09;;;;;;;9.90;3.20;;;;;;;;;;4994725;28;20046;-49
2022/10/30 10:40:59;;;;;;;9.55;3.30;;;;;;;;;;4991282;28;20551;-48
2022/10/30 10:43:36;;;;;;;12.30;3.42;;;;;;;;;;4993168;28;20042;-49
2022/10/30 10:46:08;;;;;;;9.10;3.42;;;;;;;;;;4991603;28;20065;-51
2022/10/30 10:49:15;;;;;;;17.20;3.58;;;;;;;;;;4992288;28;20469;-48
2022/10/30 10:51:44;;;;;;;11.13;3.72;;;;;;;;;;4997335;28;20038;-51
2022/10/30 10:54:20;;;;;;;10.25;2.90;;;;;;;;;;4994929;28;20470;-50
2022/10/30 10:56:48;;;;;;;11.88;3.38;;;;;;;;;;4989035;28;20037;-50
2022/10/30 10:59:22;;;;;;;14.35;3.65;;;;;;;;;;4996924;28;20124;-48
2022/10/30 11:01:59;;;;;;;12.25;3.40;;;;;;;;;;4997249;28;20382;-47
2022/10/30 11:04:40;;;;;;;16.50;3.67;;;;;;;;;;5002099;28;20490;-47
2022/10/30 11:07:28;;;;;;;18.02;3.78;;;;;;;;;;4998965;28;20137;-47
2022/10/30 11:09:55;;;;;;;18.13;4.07;;;;;;;;;;4996305;28;20049;-47
2022/10/30 11:12:35;;;;;;;20.70;4.25;;;;;;;;;;4998655;28;20491;-49
2022/10/30 11:15:24;;;;;;;11.18;4.18;;;;;;;;;;4992917;28;20029;-48
2022/10/30 11:18:04;;;;;;;14.95;3.90;;;;;;;;;;4995314;28;20709;-46
2022/10/30 11:20:37;;;;;;;18.92;3.97;;;;;;;;;;4998785;28;20453;-47
2022/10/30 11:23:03;;;;;;;15.80;4.55;;;;;;;;;;4997891;28;20465;-48
2022/10/30 11:25:37;;;;;;;14.70;4.88;;;;;;;;;;4996584;28;20109;-46
2022/10/30 11:28:04;;;;;;;18.13;4.95;;;;;;;;;;4992160;28;20039;-46
2022/10/30 11:30:30;;;;;;;17.30;4.70;;;;;;;;;;4995965;28;20022;-47
2022/10/30 11:32:57;;;;;;;20.63;7.18;;;;;;;;;;4995973;28;20046;-49
2022/10/30 11:35:23;;;;;;;19.23;5.43;;;;;;;;;;4998898;28;20026;-48
2022/10/30 11:37:51;;;;;;;20.20;5.55;;;;;;;;;;4995159;28;20927;-50
2022/10/30 11:40:21;;;;;;;20.38;5.25;;;;;;;;;;4994861;28;20034;-46
2022/10/30 11:43:03;;;;;;;35.28;6.07;;;;;;;;;;4993506;28;20105;-48
2022/10/30 11:45:31;;;;;;;16.88;4.63;;;;;;;;;;4997902;28;20402;-47
2022/10/30 11:47:58;;;;;;;12.23;4.60;;;;;;;;;;4997825;28;20046;-49
2022/10/30 11:50:29;;;;;;;17.65;4.80;;;;;;;;;;4995315;28;20100;-48
2022/10/30 11:52:58;;;;;;;16.83;4.68;;;;;;;;;;4991961;28;20030;-50
2022/10/30 11:55:34;;;;;;;24.70;5.38;;;;;;;;;;4995774;28;20040;-46
2022/10/30 11:58:00;;;;;;;28.75;5.85;;;;;;;;;;4990941;28;20038;-47
2022/10/30 12:00:31;;;;;;;20.15;5.82;;;;;;;;;;4995372;28;20031;-48
2022/10/30 12:03:04;;;;;;;13.70;4.97;;;;;;;;;;4993250;28;20038;-49
2022/10/30 12:05:39;;;;;;;23.35;5.82;;;;;;;;;;4997332;28;20515;-46
2022/10/30 12:08:07;;;;;;;16.50;5.53;;;;;;;;;;4991199;28;20061;-50
2022/10/30 12:10:44;;;;;;;27.35;5.50;;;;;;;;;;4994805;28;20132;-47
2022/10/30 12:13:19;;;;;;;17.70;5.55;;;;;;;;;;4987666;28;20045;-47
2022/10/30 12:15:48;;;;;;;26.00;6.38;;;;;;;;;;4992964;28;20466;-49
2022/10/30 12:18:20;;;;;;;19.80;5.05;;;;;;;;;;4996176;28;20458;-49
2022/10/30 12:20:51;;;;;;;16.73;5.60;;;;;;;;;;4992128;28;20123;-48
2022/10/30 12:23:20;;;;;;;22.77;5.53;;;;;;;;;;4996152;28;20102;-49
2022/10/30 12:25:47;;;;;;;27.10;6.20;;;;;;;;;;4997841;28;20022;-46
2022/10/30 12:28:16;;;;;;;24.58;6.13;;;;;;;;;;4993964;28;20047;-47
2022/10/30 12:30:50;;;;;;;17.83;6.05;;;;;;;;;;4992353;28;20046;-46
2022/10/30 12:33:39;;;;;;;20.52;5.22;;;;;;;;;;4996982;28;20062;-46
2022/10/30 12:36:10;;;;;;;18.15;5.53;;;;;;;;;;4993530;28;20191;-48
2022/10/30 12:38:51;;;;;;;19.35;6.15;;;;;;;;;;4997227;28;20133;-48
2022/10/30 12:41:38;;;;;;;18.30;4.97;;;;;;;;;;4998147;28;20034;-47
2022/10/30 12:44:13;;;;;;;19.00;5.00;;;;;;;;;;4993898;28;20057;-48
2022/10/30 12:46:51;;;;;;;16.30;5.18;;;;;;;;;;4989136;28;20111;-46
2022/10/30 12:49:48;;;;;;;19.60;5.10;;;;;;;;;;4994355;28;20038;-50
2022/10/30 12:52:20;;;;;;;21.88;5.60;;;;;;;;;;4988675;28;20054;-46
2022/10/30 12:55:01;;;;;;;;;;;;;;;;;;4994800;28;20426;-50
2022/10/30 12:57:30;;;;;;;18.98;5.28;;;;;;;;;;4991964;28;19922;-48
2022/10/30 13:00:18;;;;;;;19.08;5.20;;;;;;;;;;4993421;28;20351;-46
2022/10/30 13:03:00;;;;;;;13.52;5.25;;;;;;;;;;4991693;28;20042;-48
2022/10/30 13:05:28;;;;;;;13.98;5.32;;;;;;;;;;4993436;28;20022;-49
2022/10/30 13:08:20;;;;;;;21.73;5.20;;;;;;;;;;4998788;28;20046;-47
2022/10/30 13:10:52;;;;;;;19.10;5.78;;;;;;;;;;4992209;28;20064;-47
2022/10/30 13:13:33;;;;;;;15.45;4.90;;;;;;;;;;4997663;28;20136;-46
2022/10/30 13:16:02;;;;;;;13.57;5.40;;;;;;;;;;4996516;28;20026;-46
2022/10/30 13:18:31;;;;;;;26.60;5.75;;;;;;;;;;4994019;28;20037;-46
2022/10/30 13:21:26;;;;;;;17.45;4.68;;;;;;;;;;4993520;28;20050;-46
2022/10/30 13:23:54;;;;;;;16.38;5.45;;;;;;;;;;4991944;28;20038;-46
2022/10/30 13:26:50;;;;;;;13.50;5.63;;;;;;;;;;4994216;28;20105;-47
2022/10/30 13:29:21;;;;;;;22.85;5.35;;;;;;;;;;4992489;28;20129;-51
2022/10/30 13:32:19;;;;;;;16.58;5.13;;;;;;;;;;4990644;28;20046;-52
2022/10/30 13:35:32;;;;;;;21.17;5.10;;;;;;;;;;4996315;28;20129;-49
2022/10/30 13:38:24;;;;;;;19.20;5.30;;;;;;;;;;4974327;28;20531;-50
2022/10/30 13:41:20;;;;;;;14.73;5.07;;;;;;;;;;4971979;28;20065;-47
2022/10/30 13:43:55;;;;;;;16.58;5.22;;;;;;;;;;4963546;28;20584;-46
2022/10/30 13:46:36;;;;;;;17.30;5.07;;;;;;;;;;4976192;28;20460;-47
2022/10/30 13:49:31;;;;;;;22.38;5.50;;;;;;;;;;4972990;28;20077;-46
2022/10/30 13:52:08;;;;;;;15.45;5.55;;;;;;;;;;4972535;28;20065;-47
2022/10/30 13:54:45;;;;;;;17.80;5.43;;;;;;;;;;4972794;28;20619;-48
2022/10/30 13:57:28;;;;;;;22.63;5.55;;;;;;;;;;4974420;28;20441;-46
2022/10/30 13:59:54;;;;;;;14.82;5.93;;;;;;;;;;4973573;28;20049;-47
2022/10/30 14:02:35;;;;;;;22.33;5.68;;;;;;;;;;4977960;28;20046;-48
2022/10/30 14:05:15;;;;;;;21.95;6.68;;;;;;;;;;4972239;28;20031;-47
2022/10/30 14:08:06;;;;;;;21.50;6.40;;;;;;;;;;4973877;28;20113;-49
2022/10/30 14:10:43;;;;;;;21.67;6.07;;;;;;;;;;4970696;28;20489;-46
2022/10/30 14:13:25;;;;;;;18.80;6.05;;;;;;;;;;4980524;28;20518;-48
2022/10/30 14:16:03;;;;;;;16.13;5.85;;;;;;;;;;4992915;28;20498;-48
2022/10/30 14:18:43;;;;;;;26.80;5.72;;;;;;;;;;4996525;28;21316;-47
2022/10/30 14:21:29;;;;;;;17.25;6.03;;;;;;;;;;4993144;28;20385;-49
2022/10/30 14:24:02;;;;;;;17.33;6.10;;;;;;;;;;4991052;28;20458;-47
2022/10/30 14:26:28;;;;;;;15.73;5.30;;;;;;;;;;4993431;28;20038;-47
2022/10/30 14:28:55;;;;;;;24.25;6.40;;;;;;;;;;4995739;28;20052;-47
2022/10/30 14:31:32;;;;;;;18.00;5.75;;;;;;;;;;5002322;28;20038;-47
2022/10/30 14:33:59;;;;;;;26.00;6.15;;;;;;;;;;4996500;28;20045;-49
2022/10/30 14:36:44;;;;;;;18.45;6.03;;;;;;;;;;4992408;28;20038;-46
2022/10/30 14:39:09;;;;;;;20.55;5.90;;;;;;;;;;4993635;28;20133;-47
2022/10/30 14:41:39;;;;;;;27.38;6.85;;;;;;;;;;4999413;28;20478;-48
2022/10/30 14:44:41;;;;;;;18.23;5.57;;;;;;;;;;5000897;28;20928;-48
2022/10/30 14:47:33;;;;;;;27.53;6.20;;;;;;;;;;4995779;28;20050;-48
2022/10/30 14:50:09;;;;;;;17.10;5.97;;;;;;;;;;4992656;28;20034;-47
2022/10/30 14:52:49;;;;;;;27.27;5.85;;;;;;;;;;4995052;28;20101;-47
2022/10/30 14:55:29;;;;;;;21.13;5.72;;;;;;;;;;4996803;28;20306;-48
2022/10/30 14:58:01;;;;;;;22.20;6.07;;;;;;;;;;4989165;28;20092;-50
2022/10/30 15:00:33;;;;;;;20.70;6.53;;;;;;;;;;4992177;28;20117;-47